sensor_id;sensor_type;location;lat;lon;timestamp;temperature;humidity
13944;DHT22;7044;53.286;8.534;2023-04-01T00:01:10;10.40;99.90
13944;DHT22;7044;53.286;8.534;2023-04-01T00:03:40;10.40;99.90
13944;DHT22;7044;53.286;8.534;2023-04-01T00:06:07;10.40;99.90
13944;DHT22;7044;53.286;8.534;2023-04-01T00:08:34;10.40;99.90
13944;DHT22;7044;53.286;8.534;2023-04-01T00:11:00;10.30;99.90
13944;DHT22;7044;53.286;8.534;2023-04-01T00:13:27;10.40;99.90
13944;DHT22;7044;53.286;8.534;2023-04-01T00:15:55;10.40;99.90
13944;DHT22;7044;53.286;8.534;2023-04-01T00:18:24;10.30;99.90
13944;DHT22;7044;53.286;8.534;2023-04-01T00:20:51;10.30;99.90
13944;DHT22;7044;53.286;8.534;2023-04-01T00:23:19;10.30;99.90
13944;DHT22;7044;53.286;8.534;2023-04-01T00:25:46;10.40;99.90
13944;DHT22;7044;53.286;8.534;2023-04-01T00:28:13;10.40;99.90
13944;DHT22;7044;53.286;8.534;2023-04-01T00:30:40;10.30;99.90
13944;DHT22;7044;53.286;8.534;2023-04-01T00:33:07;10.30;99.90
13944;DHT22;7044;53.286;8.534;2023-04-01T00:35:35;10.30;99.90
13944;DHT22;7044;53.286;8.534;2023-04-01T00:38:03;10.30;99.90
13944;DHT22;7044;53.286;8.534;2023-04-01T00:40:32;10.30;99.90
13944;DHT22;7044;53.286;8.534;2023-04-01T00:43:00;10.30;99.90
13944;DHT22;7044;53.286;8.534;2023-04-01T00:45:31;10.30;99.90
13944;DHT22;7044;53.286;8.534;2023-04-01T00:48:01;10.30;99.90
13944;DHT22;7044;53.286;8.534;2023-04-01T00:50:30;10.30;99.90
13944;DHT22;7044;53.286;8.534;2023-04-01T00:53:00;10.30;99.90
13944;DHT22;7044;53.286;8.534;2023-04-01T00:55:29;10.40;99.90
13944;DHT22;7044;53.286;8.534;2023-04-01T00:57:57;10.40;99.90
13944;DHT22;7044;53.286;8.534;2023-04-01T01:00:25;10.40;99.90
13944;DHT22;7044;53.286;8.534;2023-04-01T01:02:52;10.40;99.90
13944;DHT22;7044;53.286;8.534;2023-04-01T01:05:27;10.40;99.90
13944;DHT22;7044;53.286;8.534;2023-04-01T01:08:06;10.30;99.90
13944;DHT22;7044;53.286;8.534;2023-04-01T01:10:35;10.40;99.90
13944;DHT22;7044;53.286;8.534;2023-04-01T01:13:10;10.40;99.90
13944;DHT22;7044;53.286;8.534;2023-04-01T01:15:41;10.30;99.90
13944;DHT22;7044;53.286;8.534;2023-04-01T01:18:17;10.40;99.90
13944;DHT22;7044;53.286;8.534;2023-04-01T01:21:06;10.40;99.90
13944;DHT22;7044;53.286;8.534;2023-04-01T01:24:22;10.40;99.90
13944;DHT22;7044;53.286;8.534;2023-04-01T01:26:59;10.40;99.90
13944;DHT22;7044;53.286;8.534;2023-04-01T01:35:33;10.30;99.90
13944;DHT22;7044;53.286;8.534;2023-04-01T01:38:03;10.40;99.90
13944;DHT22;7044;53.286;8.534;2023-04-01T01:40:32;10.30;99.90
13944;DHT22;7044;53.286;8.534;2023-04-01T01:43:05;10.30;99.90
13944;DHT22;7044;53.286;8.534;2023-04-01T01:45:33;10.40;99.90
13944;DHT22;7044;53.286;8.534;2023-04-01T01:48:02;10.40;99.90
13944;DHT22;7044;53.286;8.534;2023-04-01T01:50:33;10.30;99.90
13944;DHT22;7044;53.286;8.534;2023-04-01T01:53:02;10.30;99.90
13944;DHT22;7044;53.286;8.534;2023-04-01T01:55:31;10.40;99.90
13944;DHT22;7044;53.286;8.534;2023-04-01T01:58:00;10.40;99.90
13944;DHT22;7044;53.286;8.534;2023-04-01T02:00:29;10.40;99.90
13944;DHT22;7044;53.286;8.534;2023-04-01T02:02:57;10.40;99.90
13944;DHT22;7044;53.286;8.534;2023-04-01T02:05:26;10.40;99.90
13944;DHT22;7044;53.286;8.534;2023-04-01T02:08:01;10.40;99.90
13944;DHT22;7044;53.286;8.534;2023-04-01T02:10:32;10.40;99.90
13944;DHT22;7044;53.286;8.534;2023-04-01T02:13:05;10.40;99.90
13944;DHT22;7044;53.286;8.534;2023-04-01T02:15:39;10.40;99.90
13944;DHT22;7044;53.286;8.534;2023-04-01T02:18:07;10.40;99.90
13944;DHT22;7044;53.286;8.534;2023-04-01T02:20:35;10.40;99.90
13944;DHT22;7044;53.286;8.534;2023-04-01T02:23:06;10.40;99.90
13944;DHT22;7044;53.286;8.534;2023-04-01T02:25:35;10.30;99.90
13944;DHT22;7044;53.286;8.534;2023-04-01T02:28:05;10.30;99.90
13944;DHT22;7044;53.286;8.534;2023-04-01T02:30:35;10.40;99.90
13944;DHT22;7044;53.286;8.534;2023-04-01T02:33:03;10.40;99.90
13944;DHT22;7044;53.286;8.534;2023-04-01T02:35:33;10.30;99.90
13944;DHT22;7044;53.286;8.534;2023-04-01T02:38:00;10.40;99.90
13944;DHT22;7044;53.286;8.534;2023-04-01T02:40:29;10.40;99.90
13944;DHT22;7044;53.286;8.534;2023-04-01T02:42:56;10.40;99.90
13944;DHT22;7044;53.286;8.534;2023-04-01T02:45:22;10.30;99.90
13944;DHT22;7044;53.286;8.534;2023-04-01T02:47:49;10.30;99.90
13944;DHT22;7044;53.286;8.534;2023-04-01T02:50:16;10.40;99.90
13944;DHT22;7044;53.286;8.534;2023-04-01T02:52:43;10.30;99.90
13944;DHT22;7044;53.286;8.534;2023-04-01T02:55:10;10.30;99.90
13944;DHT22;7044;53.286;8.534;2023-04-01T02:57:38;10.30;99.90
13944;DHT22;7044;53.286;8.534;2023-04-01T03:00:06;10.30;99.90
13944;DHT22;7044;53.286;8.534;2023-04-01T03:02:37;10.30;99.90
13944;DHT22;7044;53.286;8.534;2023-04-01T03:05:05;10.30;99.90
13944;DHT22;7044;53.286;8.534;2023-04-01T03:07:32;10.30;99.90
13944;DHT22;7044;53.286;8.534;2023-04-01T03:09:59;10.30;99.90
13944;DHT22;7044;53.286;8.534;2023-04-01T03:12:26;10.30;99.90
13944;DHT22;7044;53.286;8.534;2023-04-01T03:14:54;10.40;99.90
13944;DHT22;7044;53.286;8.534;2023-04-01T03:17:21;10.30;99.90
13944;DHT22;7044;53.286;8.534;2023-04-01T03:19:47;10.30;99.90
13944;DHT22;7044;53.286;8.534;2023-04-01T03:22:14;10.30;99.90
13944;DHT22;7044;53.286;8.534;2023-04-01T03:24:41;10.30;99.90
13944;DHT22;7044;53.286;8.534;2023-04-01T03:27:08;10.30;99.90
13944;DHT22;7044;53.286;8.534;2023-04-01T03:29:35;10.30;99.90
13944;DHT22;7044;53.286;8.534;2023-04-01T03:32:03;10.30;99.90
13944;DHT22;7044;53.286;8.534;2023-04-01T03:34:30;10.30;99.90
13944;DHT22;7044;53.286;8.534;2023-04-01T03:36:57;10.30;99.90
13944;DHT22;7044;53.286;8.534;2023-04-01T03:39:24;10.30;99.90
13944;DHT22;7044;53.286;8.534;2023-04-01T03:41:50;10.30;99.90
13944;DHT22;7044;53.286;8.534;2023-04-01T03:44:17;10.30;99.90
13944;DHT22;7044;53.286;8.534;2023-04-01T03:46:44;10.30;99.90
13944;DHT22;7044;53.286;8.534;2023-04-01T03:49:12;10.30;99.90
13944;DHT22;7044;53.286;8.534;2023-04-01T03:51:39;10.30;99.90
13944;DHT22;7044;53.286;8.534;2023-04-01T03:54:06;10.30;99.90
13944;DHT22;7044;53.286;8.534;2023-04-01T03:56:33;10.30;99.90
13944;DHT22;7044;53.286;8.534;2023-04-01T03:59:02;10.20;99.90
13944;DHT22;7044;53.286;8.534;2023-04-01T04:01:29;10.30;99.90
13944;DHT22;7044;53.286;8.534;2023-04-01T04:03:56;10.20;99.90
13944;DHT22;7044;53.286;8.534;2023-04-01T04:06:25;10.20;99.90
13944;DHT22;7044;53.286;8.534;2023-04-01T04:08:52;10.20;99.90
13944;DHT22;7044;53.286;8.534;2023-04-01T04:11:20;10.20;99.90
13944;DHT22;7044;53.286;8.534;2023-04-01T04:13:47;10.20;99.90
13944;DHT22;7044;53.286;8.534;2023-04-01T04:16:14;10.20;99.90
13944;DHT22;7044;53.286;8.534;2023-04-01T04:18:41;10.20;99.90
13944;DHT22;7044;53.286;8.534;2023-04-01T04:21:12;10.30;99.90
13944;DHT22;7044;53.286;8.534;2023-04-01T04:23:40;10.20;99.90
13944;DHT22;7044;53.286;8.534;2023-04-01T04:26:08;10.30;99.90
13944;DHT22;7044;53.286;8.534;2023-04-01T04:28:35;10.20;99.90
13944;DHT22;7044;53.286;8.534;2023-04-01T04:31:03;10.20;99.90
13944;DHT22;7044;53.286;8.534;2023-04-01T04:35:25;10.20;99.90
13944;DHT22;7044;53.286;8.534;2023-04-01T04:37:52;10.30;99.90
13944;DHT22;7044;53.286;8.534;2023-04-01T04:40:19;10.30;99.90
13944;DHT22;7044;53.286;8.534;2023-04-01T04:42:46;10.20;99.90
13944;DHT22;7044;53.286;8.534;2023-04-01T04:45:13;10.20;99.90
13944;DHT22;7044;53.286;8.534;2023-04-01T04:47:40;10.20;99.90
13944;DHT22;7044;53.286;8.534;2023-04-01T04:50:08;10.20;99.90
13944;DHT22;7044;53.286;8.534;2023-04-01T04:52:36;10.20;99.90
13944;DHT22;7044;53.286;8.534;2023-04-01T04:55:04;10.20;99.90
13944;DHT22;7044;53.286;8.534;2023-04-01T04:57:31;10.20;99.90
13944;DHT22;7044;53.286;8.534;2023-04-01T04:59:57;10.20;99.90
13944;DHT22;7044;53.286;8.534;2023-04-01T05:02:24;10.30;99.90
13944;DHT22;7044;53.286;8.534;2023-04-01T05:04:51;10.20;99.90
13944;DHT22;7044;53.286;8.534;2023-04-01T05:07:18;10.20;99.90
13944;DHT22;7044;53.286;8.534;2023-04-01T05:09:46;10.20;99.90
13944;DHT22;7044;53.286;8.534;2023-04-01T05:12:13;10.20;99.90
13944;DHT22;7044;53.286;8.534;2023-04-01T05:14:39;10.20;99.90
13944;DHT22;7044;53.286;8.534;2023-04-01T05:17:08;10.20;99.90
13944;DHT22;7044;53.286;8.534;2023-04-01T05:19:35;10.20;99.90
13944;DHT22;7044;53.286;8.534;2023-04-01T05:22:02;10.20;99.90
13944;DHT22;7044;53.286;8.534;2023-04-01T05:24:29;10.20;99.90
13944;DHT22;7044;53.286;8.534;2023-04-01T05:26:58;10.20;99.90
13944;DHT22;7044;53.286;8.534;2023-04-01T05:29:25;10.20;99.90
13944;DHT22;7044;53.286;8.534;2023-04-01T05:31:52;10.20;99.90
13944;DHT22;7044;53.286;8.534;2023-04-01T05:34:19;10.20;99.90
13944;DHT22;7044;53.286;8.534;2023-04-01T05:36:46;10.20;99.90
13944;DHT22;7044;53.286;8.534;2023-04-01T05:39:13;10.10;99.90
13944;DHT22;7044;53.286;8.534;2023-04-01T05:41:39;10.20;99.90
13944;DHT22;7044;53.286;8.534;2023-04-01T05:44:11;10.20;99.90
13944;DHT22;7044;53.286;8.534;2023-04-01T05:46:38;10.20;99.90
13944;DHT22;7044;53.286;8.534;2023-04-01T05:49:05;10.20;99.90
13944;DHT22;7044;53.286;8.534;2023-04-01T05:51:32;10.20;99.90
13944;DHT22;7044;53.286;8.534;2023-04-01T05:53:59;10.20;99.90
13944;DHT22;7044;53.286;8.534;2023-04-01T05:56:25;10.20;99.90
13944;DHT22;7044;53.286;8.534;2023-04-01T05:58:53;10.20;99.90
13944;DHT22;7044;53.286;8.534;2023-04-01T06:01:22;10.20;99.90
13944;DHT22;7044;53.286;8.534;2023-04-01T06:03:48;10.20;99.90
13944;DHT22;7044;53.286;8.534;2023-04-01T06:06:23;10.20;99.90
13944;DHT22;7044;53.286;8.534;2023-04-01T06:08:51;10.20;99.90
13944;DHT22;7044;53.286;8.534;2023-04-01T06:11:24;10.30;99.90
13944;DHT22;7044;53.286;8.534;2023-04-01T06:14:03;10.20;99.90
13944;DHT22;7044;53.286;8.534;2023-04-01T06:16:44;10.30;99.90
13944;DHT22;7044;53.286;8.534;2023-04-01T06:19:24;10.30;99.90
13944;DHT22;7044;53.286;8.534;2023-04-01T06:22:13;10.20;99.90
13944;DHT22;7044;53.286;8.534;2023-04-01T06:27:45;10.30;99.90
13944;DHT22;7044;53.286;8.534;2023-04-01T06:30:32;10.30;99.90
13944;DHT22;7044;53.286;8.534;2023-04-01T06:33:13;10.30;99.90
13944;DHT22;7044;53.286;8.534;2023-04-01T06:36:11;10.30;99.90
13944;DHT22;7044;53.286;8.534;2023-04-01T06:38:55;10.30;99.90
13944;DHT22;7044;53.286;8.534;2023-04-01T06:44:53;10.30;99.90
13944;DHT22;7044;53.286;8.534;2023-04-01T06:47:29;10.30;99.90
13944;DHT22;7044;53.286;8.534;2023-04-01T06:50:07;10.30;99.90
13944;DHT22;7044;53.286;8.534;2023-04-01T06:52:43;10.30;99.90
13944;DHT22;7044;53.286;8.534;2023-04-01T06:55:24;10.30;99.90
13944;DHT22;7044;53.286;8.534;2023-04-01T06:57:55;10.30;99.90
13944;DHT22;7044;53.286;8.534;2023-04-01T07:00:27;10.30;99.90
13944;DHT22;7044;53.286;8.534;2023-04-01T07:03:02;10.30;99.90
13944;DHT22;7044;53.286;8.534;2023-04-01T07:05:33;10.30;99.90
13944;DHT22;7044;53.286;8.534;2023-04-01T07:08:03;10.30;99.90
13944;DHT22;7044;53.286;8.534;2023-04-01T07:10:35;10.30;99.90
13944;DHT22;7044;53.286;8.534;2023-04-01T07:13:14;10.30;99.90
13944;DHT22;7044;53.286;8.534;2023-04-01T07:15:43;10.40;99.90
13944;DHT22;7044;53.286;8.534;2023-04-01T07:18:15;10.40;99.90
13944;DHT22;7044;53.286;8.534;2023-04-01T07:20:44;10.40;99.90
13944;DHT22;7044;53.286;8.534;2023-04-01T07:23:20;10.40;99.90
13944;DHT22;7044;53.286;8.534;2023-04-01T07:25:51;10.40;99.90
13944;DHT22;7044;53.286;8.534;2023-04-01T07:28:19;10.40;99.90
13944;DHT22;7044;53.286;8.534;2023-04-01T07:30:53;10.40;99.90
13944;DHT22;7044;53.286;8.534;2023-04-01T07:33:32;10.40;99.90
13944;DHT22;7044;53.286;8.534;2023-04-01T07:36:05;10.40;99.90
13944;DHT22;7044;53.286;8.534;2023-04-01T07:38:40;10.50;99.90
13944;DHT22;7044;53.286;8.534;2023-04-01T07:41:17;10.40;99.90
13944;DHT22;7044;53.286;8.534;2023-04-01T07:43:59;10.50;99.90
13944;DHT22;7044;53.286;8.534;2023-04-01T07:46:54;10.50;99.90
13944;DHT22;7044;53.286;8.534;2023-04-01T07:49:28;10.50;99.90
13944;DHT22;7044;53.286;8.534;2023-04-01T07:52:01;10.50;99.90
13944;DHT22;7044;53.286;8.534;2023-04-01T07:54:37;10.50;99.90
13944;DHT22;7044;53.286;8.534;2023-04-01T07:57:09;10.50;99.90
13944;DHT22;7044;53.286;8.534;2023-04-01T07:59:45;10.50;99.90
13944;DHT22;7044;53.286;8.534;2023-04-01T08:02:25;10.50;99.90
13944;DHT22;7044;53.286;8.534;2023-04-01T08:05:00;10.50;99.90
13944;DHT22;7044;53.286;8.534;2023-04-01T08:07:38;10.40;99.90
13944;DHT22;7044;53.286;8.534;2023-04-01T08:10:11;10.40;99.90
13944;DHT22;7044;53.286;8.534;2023-04-01T08:12:49;10.50;99.90
13944;DHT22;7044;53.286;8.534;2023-04-01T08:15:21;10.50;99.90
13944;DHT22;7044;53.286;8.534;2023-04-01T08:17:59;10.50;99.90
13944;DHT22;7044;53.286;8.534;2023-04-01T08:20:34;10.50;99.90
13944;DHT22;7044;53.286;8.534;2023-04-01T08:23:09;10.50;99.90
13944;DHT22;7044;53.286;8.534;2023-04-01T08:25:39;10.50;99.90
13944;DHT22;7044;53.286;8.534;2023-04-01T08:28:13;10.50;99.90
13944;DHT22;7044;53.286;8.534;2023-04-01T08:30:43;10.50;99.90
13944;DHT22;7044;53.286;8.534;2023-04-01T08:33:17;10.60;99.90
13944;DHT22;7044;53.286;8.534;2023-04-01T08:35:49;10.60;99.90
13944;DHT22;7044;53.286;8.534;2023-04-01T08:38:22;10.60;99.90
13944;DHT22;7044;53.286;8.534;2023-04-01T08:41:01;10.60;99.90
13944;DHT22;7044;53.286;8.534;2023-04-01T08:43:57;10.60;99.90
13944;DHT22;7044;53.286;8.534;2023-04-01T08:49:32;10.40;99.90
13944;DHT22;7044;53.286;8.534;2023-04-01T08:52:21;10.20;99.90
13944;DHT22;7044;53.286;8.534;2023-04-01T08:55:20;9.90;99.90
13944;DHT22;7044;53.286;8.534;2023-04-01T08:57:58;9.70;99.90
13944;DHT22;7044;53.286;8.534;2023-04-01T09:00:31;9.70;99.90
13944;DHT22;7044;53.286;8.534;2023-04-01T09:06:24;9.60;99.90
13944;DHT22;7044;53.286;8.534;2023-04-01T09:12:00;9.40;99.90
13944;DHT22;7044;53.286;8.534;2023-04-01T09:14:47;9.40;99.90
13944;DHT22;7044;53.286;8.534;2023-04-01T09:17:40;9.40;99.90
13944;DHT22;7044;53.286;8.534;2023-04-01T09:20:19;9.40;99.90
13944;DHT22;7044;53.286;8.534;2023-04-01T09:23:05;9.40;99.90
13944;DHT22;7044;53.286;8.534;2023-04-01T09:25:58;9.30;99.90
13944;DHT22;7044;53.286;8.534;2023-04-01T09:28:34;9.20;99.90
13944;DHT22;7044;53.286;8.534;2023-04-01T09:31:19;9.30;99.90
13944;DHT22;7044;53.286;8.534;2023-04-01T09:34:11;9.30;99.90
13944;DHT22;7044;53.286;8.534;2023-04-01T09:36:46;9.30;99.90
13944;DHT22;7044;53.286;8.534;2023-04-01T09:39:35;9.30;99.90
13944;DHT22;7044;53.286;8.534;2023-04-01T09:42:14;9.10;99.90
13944;DHT22;7044;53.286;8.534;2023-04-01T09:44:45;9.00;99.90
13944;DHT22;7044;53.286;8.534;2023-04-01T09:47:25;9.10;99.90
13944;DHT22;7044;53.286;8.534;2023-04-01T09:50:27;9.00;99.90
13944;DHT22;7044;53.286;8.534;2023-04-01T09:53:06;9.10;99.90
13944;DHT22;7044;53.286;8.534;2023-04-01T09:56:13;9.10;99.90
13944;DHT22;7044;53.286;8.534;2023-04-01T10:05:31;9.00;99.90
13944;DHT22;7044;53.286;8.534;2023-04-01T10:08:29;9.00;99.90
13944;DHT22;7044;53.286;8.534;2023-04-01T10:11:41;9.00;99.90
13944;DHT22;7044;53.286;8.534;2023-04-01T10:18:24;9.00;99.90
13944;DHT22;7044;53.286;8.534;2023-04-01T10:21:07;8.90;99.90
13944;DHT22;7044;53.286;8.534;2023-04-01T10:30:05;8.90;99.90
13944;DHT22;7044;53.286;8.534;2023-04-01T10:33:08;8.60;99.90
13944;DHT22;7044;53.286;8.534;2023-04-01T10:39:33;8.60;99.90
13944;DHT22;7044;53.286;8.534;2023-04-01T10:45:38;8.60;99.90
13944;DHT22;7044;53.286;8.534;2023-04-01T10:54:46;8.60;99.90
13944;DHT22;7044;53.286;8.534;2023-04-01T10:57:42;8.70;99.90
13944;DHT22;7044;53.286;8.534;2023-04-01T11:00:32;8.50;99.90
13944;DHT22;7044;53.286;8.534;2023-04-01T11:03:32;8.80;99.90
13944;DHT22;7044;53.286;8.534;2023-04-01T11:13:15;8.40;99.90
13944;DHT22;7044;53.286;8.534;2023-04-01T11:16:13;8.30;99.90
13944;DHT22;7044;53.286;8.534;2023-04-01T11:22:32;8.40;99.90
13944;DHT22;7044;53.286;8.534;2023-04-01T11:25:17;8.30;99.90
13944;DHT22;7044;53.286;8.534;2023-04-01T11:28:01;8.40;99.90
13944;DHT22;7044;53.286;8.534;2023-04-01T11:30:44;8.30;99.90
13944;DHT22;7044;53.286;8.534;2023-04-01T11:33:19;8.20;99.90
13944;DHT22;7044;53.286;8.534;2023-04-01T11:36:10;8.20;99.90
13944;DHT22;7044;53.286;8.534;2023-04-01T11:38:53;8.20;99.90
13944;DHT22;7044;53.286;8.534;2023-04-01T11:41:31;8.20;99.90
13944;DHT22;7044;53.286;8.534;2023-04-01T11:44:17;8.30;99.90
13944;DHT22;7044;53.286;8.534;2023-04-01T11:47:03;8.30;99.90
13944;DHT22;7044;53.286;8.534;2023-04-01T11:49:53;8.30;99.90
13944;DHT22;7044;53.286;8.534;2023-04-01T11:52:47;8.40;99.90
13944;DHT22;7044;53.286;8.534;2023-04-01T11:55:28;8.30;99.90
13944;DHT22;7044;53.286;8.534;2023-04-01T12:00:59;8.40;99.90
13944;DHT22;7044;53.286;8.534;2023-04-01T12:04:00;8.40;99.90
13944;DHT22;7044;53.286;8.534;2023-04-01T12:06:36;8.40;99.90
13944;DHT22;7044;53.286;8.534;2023-04-01T12:09:13;8.50;99.90
13944;DHT22;7044;53.286;8.534;2023-04-01T12:11:51;8.50;99.90
13944;DHT22;7044;53.286;8.534;2023-04-01T12:14:30;8.50;99.90
13944;DHT22;7044;53.286;8.534;2023-04-01T12:17:06;8.50;99.90
13944;DHT22;7044;53.286;8.534;2023-04-01T12:19:43;8.50;99.90
13944;DHT22;7044;53.286;8.534;2023-04-01T12:22:26;8.60;99.90
13944;DHT22;7044;53.286;8.534;2023-04-01T12:25:01;8.40;99.90
13944;DHT22;7044;53.286;8.534;2023-04-01T12:27:45;8.30;99.90
13944;DHT22;7044;53.286;8.534;2023-04-01T12:33:42;8.30;99.90
13944;DHT22;7044;53.286;8.534;2023-04-01T12:36:29;8.30;99.90
13944;DHT22;7044;53.286;8.534;2023-04-01T12:39:19;8.20;99.90
13944;DHT22;7044;53.286;8.534;2023-04-01T12:41:51;8.20;99.90
13944;DHT22;7044;53.286;8.534;2023-04-01T12:44:41;8.30;99.90
13944;DHT22;7044;53.286;8.534;2023-04-01T12:47:25;8.20;99.90
13944;DHT22;7044;53.286;8.534;2023-04-01T12:50:02;8.30;99.90
13944;DHT22;7044;53.286;8.534;2023-04-01T12:52:46;8.40;99.90
13944;DHT22;7044;53.286;8.534;2023-04-01T12:55:35;8.40;99.90
13944;DHT22;7044;53.286;8.534;2023-04-01T12:58:45;8.40;99.90
13944;DHT22;7044;53.286;8.534;2023-04-01T13:01:50;8.40;99.90
13944;DHT22;7044;53.286;8.534;2023-04-01T13:04:48;8.30;99.90
13944;DHT22;7044;53.286;8.534;2023-04-01T13:10:25;8.20;99.90
13944;DHT22;7044;53.286;8.534;2023-04-01T13:13:19;8.20;99.90
13944;DHT22;7044;53.286;8.534;2023-04-01T13:15:52;8.20;99.90
13944;DHT22;7044;53.286;8.534;2023-04-01T13:18:28;8.50;99.90
13944;DHT22;7044;53.286;8.534;2023-04-01T13:21:04;8.20;99.90
13944;DHT22;7044;53.286;8.534;2023-04-01T13:23:41;8.10;99.90
13944;DHT22;7044;53.286;8.534;2023-04-01T13:26:20;8.10;99.90
13944;DHT22;7044;53.286;8.534;2023-04-01T13:28:53;8.10;99.90
13944;DHT22;7044;53.286;8.534;2023-04-01T13:31:48;8.10;99.90
13944;DHT22;7044;53.286;8.534;2023-04-01T13:34:25;8.10;99.90
13944;DHT22;7044;53.286;8.534;2023-04-01T13:37:03;8.20;99.90
13944;DHT22;7044;53.286;8.534;2023-04-01T13:39:45;8.10;99.90
13944;DHT22;7044;53.286;8.534;2023-04-01T13:42:19;8.10;99.90
13944;DHT22;7044;53.286;8.534;2023-04-01T13:44:53;8.20;99.90
13944;DHT22;7044;53.286;8.534;2023-04-01T13:47:43;8.00;99.90
13944;DHT22;7044;53.286;8.534;2023-04-01T13:50:37;8.00;99.90
13944;DHT22;7044;53.286;8.534;2023-04-01T13:56:15;8.00;99.90
13944;DHT22;7044;53.286;8.534;2023-04-01T13:59:06;8.10;99.90
13944;DHT22;7044;53.286;8.534;2023-04-01T14:01:41;8.10;99.90
13944;DHT22;7044;53.286;8.534;2023-04-01T14:04:33;7.80;99.90
13944;DHT22;7044;53.286;8.534;2023-04-01T14:07:11;7.80;99.90
13944;DHT22;7044;53.286;8.534;2023-04-01T14:10:02;7.70;99.90
13944;DHT22;7044;53.286;8.534;2023-04-01T14:12:36;7.60;99.90
13944;DHT22;7044;53.286;8.534;2023-04-01T14:15:23;7.70;99.90
13944;DHT22;7044;53.286;8.534;2023-04-01T14:18:07;7.60;99.90
13944;DHT22;7044;53.286;8.534;2023-04-01T14:20:39;7.60;99.90
13944;DHT22;7044;53.286;8.534;2023-04-01T14:23:29;7.60;99.90
13944;DHT22;7044;53.286;8.534;2023-04-01T14:29:17;7.60;99.90
13944;DHT22;7044;53.286;8.534;2023-04-01T14:32:02;7.50;99.90
13944;DHT22;7044;53.286;8.534;2023-04-01T14:34:43;7.70;99.90
13944;DHT22;7044;53.286;8.534;2023-04-01T14:37:22;7.60;99.90
13944;DHT22;7044;53.286;8.534;2023-04-01T14:40:20;7.60;99.90
13944;DHT22;7044;53.286;8.534;2023-04-01T14:46:08;7.50;99.90
13944;DHT22;7044;53.286;8.534;2023-04-01T14:48:38;7.60;99.90
13944;DHT22;7044;53.286;8.534;2023-04-01T14:51:10;7.60;99.90
13944;DHT22;7044;53.286;8.534;2023-04-01T14:53:44;7.50;99.90
13944;DHT22;7044;53.286;8.534;2023-04-01T14:56:35;7.40;99.90
13944;DHT22;7044;53.286;8.534;2023-04-01T14:59:07;7.30;99.90
13944;DHT22;7044;53.286;8.534;2023-04-01T15:01:40;7.30;99.90
13944;DHT22;7044;53.286;8.534;2023-04-01T15:04:24;7.10;99.90
13944;DHT22;7044;53.286;8.534;2023-04-01T15:07:02;7.20;99.90
13944;DHT22;7044;53.286;8.534;2023-04-01T15:09:41;7.20;99.90
13944;DHT22;7044;53.286;8.534;2023-04-01T15:12:17;7.20;99.90
13944;DHT22;7044;53.286;8.534;2023-04-01T15:14:55;7.10;99.90
13944;DHT22;7044;53.286;8.534;2023-04-01T15:17:49;7.10;99.90
13944;DHT22;7044;53.286;8.534;2023-04-01T15:23:34;7.20;99.90
13944;DHT22;7044;53.286;8.534;2023-04-01T15:26:17;7.20;99.90
13944;DHT22;7044;53.286;8.534;2023-04-01T15:28:57;7.20;99.90
13944;DHT22;7044;53.286;8.534;2023-04-01T15:31:31;7.10;99.90
13944;DHT22;7044;53.286;8.534;2023-04-01T15:34:18;7.10;99.90
13944;DHT22;7044;53.286;8.534;2023-04-01T15:36:55;7.00;99.90
13944;DHT22;7044;53.286;8.534;2023-04-01T15:39:30;7.10;99.90
13944;DHT22;7044;53.286;8.534;2023-04-01T15:42:16;7.10;99.90
13944;DHT22;7044;53.286;8.534;2023-04-01T15:45:03;7.00;99.90
13944;DHT22;7044;53.286;8.534;2023-04-01T15:47:36;7.00;99.90
13944;DHT22;7044;53.286;8.534;2023-04-01T15:50:28;7.00;99.90
13944;DHT22;7044;53.286;8.534;2023-04-01T15:53:09;7.00;99.90
13944;DHT22;7044;53.286;8.534;2023-04-01T15:55:44;7.00;99.90
13944;DHT22;7044;53.286;8.534;2023-04-01T15:58:38;7.00;99.90
13944;DHT22;7044;53.286;8.534;2023-04-01T16:01:16;7.00;99.90
13944;DHT22;7044;53.286;8.534;2023-04-01T16:03:54;7.00;99.90
13944;DHT22;7044;53.286;8.534;2023-04-01T16:06:33;7.00;99.90
13944;DHT22;7044;53.286;8.534;2023-04-01T16:09:20;6.90;99.90
13944;DHT22;7044;53.286;8.534;2023-04-01T16:11:53;6.80;99.90
13944;DHT22;7044;53.286;8.534;2023-04-01T16:14:35;6.80;99.90
13944;DHT22;7044;53.286;8.534;2023-04-01T16:17:19;6.80;99.90
13944;DHT22;7044;53.286;8.534;2023-04-01T16:19:51;6.70;99.90
13944;DHT22;7044;53.286;8.534;2023-04-01T16:22:23;6.70;99.90
13944;DHT22;7044;53.286;8.534;2023-04-01T16:24:57;6.70;99.90
13944;DHT22;7044;53.286;8.534;2023-04-01T16:27:30;6.80;99.90
13944;DHT22;7044;53.286;8.534;2023-04-01T16:30:17;6.70;99.90
13944;DHT22;7044;53.286;8.534;2023-04-01T16:32:53;6.80;99.90
13944;DHT22;7044;53.286;8.534;2023-04-01T16:35:29;6.70;99.90
13944;DHT22;7044;53.286;8.534;2023-04-01T16:38:00;6.70;99.90
13944;DHT22;7044;53.286;8.534;2023-04-01T16:40:40;6.70;99.90
13944;DHT22;7044;53.286;8.534;2023-04-01T16:43:15;6.60;99.90
13944;DHT22;7044;53.286;8.534;2023-04-01T16:45:47;6.60;99.90
13944;DHT22;7044;53.286;8.534;2023-04-01T16:48:22;6.60;99.90
13944;DHT22;7044;53.286;8.534;2023-04-01T16:50:58;6.60;99.90
13944;DHT22;7044;53.286;8.534;2023-04-01T16:53:35;6.60;99.90
13944;DHT22;7044;53.286;8.534;2023-04-01T16:56:10;6.60;99.90
13944;DHT22;7044;53.286;8.534;2023-04-01T16:58:42;6.70;99.90
13944;DHT22;7044;53.286;8.534;2023-04-01T17:01:13;6.70;99.90
13944;DHT22;7044;53.286;8.534;2023-04-01T17:03:44;6.60;99.90
13944;DHT22;7044;53.286;8.534;2023-04-01T17:06:28;6.50;99.90
13944;DHT22;7044;53.286;8.534;2023-04-01T17:09:25;6.40;99.90
13944;DHT22;7044;53.286;8.534;2023-04-01T17:12:04;6.40;99.90
13944;DHT22;7044;53.286;8.534;2023-04-01T17:14:42;6.40;99.90
13944;DHT22;7044;53.286;8.534;2023-04-01T17:17:19;6.40;99.90
13944;DHT22;7044;53.286;8.534;2023-04-01T17:20:23;6.40;99.90
13944;DHT22;7044;53.286;8.534;2023-04-01T17:22:55;6.40;99.90
13944;DHT22;7044;53.286;8.534;2023-04-01T17:25:46;6.40;99.90
13944;DHT22;7044;53.286;8.534;2023-04-01T17:28:26;6.40;99.90
13944;DHT22;7044;53.286;8.534;2023-04-01T17:30:59;6.40;99.90
13944;DHT22;7044;53.286;8.534;2023-04-01T17:33:57;6.30;99.90
13944;DHT22;7044;53.286;8.534;2023-04-01T17:36:34;6.40;99.90
13944;DHT22;7044;53.286;8.534;2023-04-01T17:39:25;6.30;99.90
13944;DHT22;7044;53.286;8.534;2023-04-01T17:42:00;6.40;99.90
13944;DHT22;7044;53.286;8.534;2023-04-01T17:44:45;6.40;99.90
13944;DHT22;7044;53.286;8.534;2023-04-01T17:47:26;6.40;99.90
13944;DHT22;7044;53.286;8.534;2023-04-01T17:50:02;6.30;99.90
13944;DHT22;7044;53.286;8.534;2023-04-01T17:52:37;6.30;99.90
13944;DHT22;7044;53.286;8.534;2023-04-01T17:55:33;6.20;99.90
13944;DHT22;7044;53.286;8.534;2023-04-01T17:58:10;6.20;99.90
13944;DHT22;7044;53.286;8.534;2023-04-01T18:00:58;6.20;99.90
13944;DHT22;7044;53.286;8.534;2023-04-01T18:03:56;6.10;99.90
13944;DHT22;7044;53.286;8.534;2023-04-01T18:06:33;6.10;99.90
13944;DHT22;7044;53.286;8.534;2023-04-01T18:09:06;6.00;99.90
13944;DHT22;7044;53.286;8.534;2023-04-01T18:11:41;6.10;99.90
13944;DHT22;7044;53.286;8.534;2023-04-01T18:14:48;6.00;99.90
13944;DHT22;7044;53.286;8.534;2023-04-01T18:17:27;6.00;99.90